sensor_id;sensor_type;location;lat;lon;timestamp;P1;durP1;ratioP1;P2;durP2;ratioP2
72201;SDS011;60105;54.956;73.412;2023-05-10T00:00:32;46.93;;;26.90;;
72201;SDS011;60105;54.956;73.412;2023-05-10T00:03:34;39.42;;;25.02;;
72201;SDS011;60105;54.956;73.412;2023-05-10T00:06:35;45.20;;;25.05;;
72201;SDS011;60105;54.956;73.412;2023-05-10T00:09:36;43.07;;;25.13;;
72201;SDS011;60105;54.956;73.412;2023-05-10T00:13:21;44.61;;;26.08;;
72201;SDS011;60105;54.956;73.412;2023-05-10T00:16:22;45.67;;;27.08;;
72201;SDS011;60105;54.956;73.412;2023-05-10T00:19:24;41.45;;;23.58;;
72201;SDS011;60105;54.956;73.412;2023-05-10T00:22:25;44.28;;;25.15;;
72201;SDS011;60105;54.956;73.412;2023-05-10T00:25:26;49.97;;;26.53;;
72201;SDS011;60105;54.956;73.412;2023-05-10T00:28:28;36.47;;;19.70;;
72201;SDS011;60105;54.956;73.412;2023-05-10T00:31:30;45.35;;;24.38;;
72201;SDS011;60105;54.956;73.412;2023-05-10T00:34:32;45.00;;;26.42;;
72201;SDS011;60105;54.956;73.412;2023-05-10T00:37:33;38.42;;;24.55;;
72201;SDS011;60105;54.956;73.412;2023-05-10T00:40:35;38.97;;;23.30;;
72201;SDS011;60105;54.956;73.412;2023-05-10T00:43:43;39.33;;;23.87;;
72201;SDS011;60105;54.956;73.412;2023-05-10T00:46:44;40.97;;;23.07;;
72201;SDS011;60105;54.956;73.412;2023-05-10T00:49:46;39.35;;;21.63;;
72201;SDS011;60105;54.956;73.412;2023-05-10T00:53:21;37.67;;;22.42;;
72201;SDS011;60105;54.956;73.412;2023-05-10T00:56:22;33.58;;;22.90;;
72201;SDS011;60105;54.956;73.412;2023-05-10T00:59:25;42.43;;;23.33;;
72201;SDS011;60105;54.956;73.412;2023-05-10T01:02:27;38.03;;;23.58;;
72201;SDS011;60105;54.956;73.412;2023-05-10T01:05:28;38.30;;;23.70;;
72201;SDS011;60105;54.956;73.412;2023-05-10T01:08:31;46.17;;;23.67;;
72201;SDS011;60105;54.956;73.412;2023-05-10T01:11:34;44.83;;;23.83;;
72201;SDS011;60105;54.956;73.412;2023-05-10T01:14:36;41.53;;;23.90;;
72201;SDS011;60105;54.956;73.412;2023-05-10T01:18:21;39.10;;;22.51;;
72201;SDS011;60105;54.956;73.412;2023-05-10T01:21:33;38.60;;;22.30;;
72201;SDS011;60105;54.956;73.412;2023-05-10T01:35:07;35.97;;;20.63;;
72201;SDS011;60105;54.956;73.412;2023-05-10T01:41:26;30.75;;;19.90;;
72201;SDS011;60105;54.956;73.412;2023-05-10T01:48:21;37.72;;;20.40;;
72201;SDS011;60105;54.956;73.412;2023-05-10T01:51:25;40.38;;;21.48;;
72201;SDS011;60105;54.956;73.412;2023-05-10T01:54:29;37.25;;;20.90;;
72201;SDS011;60105;54.956;73.412;2023-05-10T01:57:34;38.70;;;22.02;;
72201;SDS011;60105;54.956;73.412;2023-05-10T02:00:39;35.80;;;21.17;;
72201;SDS011;60105;54.956;73.412;2023-05-10T02:03:43;37.03;;;21.63;;
72201;SDS011;60105;54.956;73.412;2023-05-10T02:06:45;33.28;;;20.30;;
72201;SDS011;60105;54.956;73.412;2023-05-10T02:09:48;38.55;;;21.67;;
72201;SDS011;60105;54.956;73.412;2023-05-10T02:13:21;30.73;;;20.65;;
72201;SDS011;60105;54.956;73.412;2023-05-10T02:16:25;39.47;;;21.63;;
72201;SDS011;60105;54.956;73.412;2023-05-10T02:19:28;35.92;;;21.05;;
72201;SDS011;60105;54.956;73.412;2023-05-10T02:23:21;35.92;;;20.67;;
72201;SDS011;60105;54.956;73.412;2023-05-10T02:26:24;32.05;;;21.77;;
72201;SDS011;60105;54.956;73.412;2023-05-10T02:29:26;38.87;;;23.23;;
72201;SDS011;60105;54.956;73.412;2023-05-10T02:32:28;38.33;;;20.65;;
72201;SDS011;60105;54.956;73.412;2023-05-10T02:35:31;34.20;;;21.58;;
72201;SDS011;60105;54.956;73.412;2023-05-10T02:38:34;37.20;;;19.85;;
72201;SDS011;60105;54.956;73.412;2023-05-10T02:41:37;40.13;;;20.15;;
72201;SDS011;60105;54.956;73.412;2023-05-10T02:44:42;32.72;;;20.17;;
72201;SDS011;60105;54.956;73.412;2023-05-10T02:48:21;33.25;;;21.85;;
72201;SDS011;60105;54.956;73.412;2023-05-10T02:51:24;39.27;;;21.90;;
72201;SDS011;60105;54.956;73.412;2023-05-10T02:54:30;36.22;;;21.80;;
72201;SDS011;60105;54.956;73.412;2023-05-10T02:57:34;32.42;;;20.98;;
72201;SDS011;60105;54.956;73.412;2023-05-10T03:00:39;35.90;;;21.40;;
72201;SDS011;60105;54.956;73.412;2023-05-10T03:03:41;42.83;;;22.17;;
72201;SDS011;60105;54.956;73.412;2023-05-10T03:06:43;38.20;;;20.85;;
72201;SDS011;60105;54.956;73.412;2023-05-10T03:09:45;32.43;;;20.13;;
72201;SDS011;60105;54.956;73.412;2023-05-10T03:13:25;31.58;;;19.55;;
72201;SDS011;60105;54.956;73.412;2023-05-10T03:16:45;32.40;;;19.23;;
72201;SDS011;60105;54.956;73.412;2023-05-10T03:23:22;30.20;;;18.20;;
72201;SDS011;60105;54.956;73.412;2023-05-10T03:26:40;24.87;;;17.43;;
72201;SDS011;60105;54.956;73.412;2023-05-10T03:29:50;27.35;;;17.38;;
72201;SDS011;60105;54.956;73.412;2023-05-10T03:33:21;30.55;;;20.40;;
72201;SDS011;60105;54.956;73.412;2023-05-10T03:36:22;30.43;;;17.23;;
72201;SDS011;60105;54.956;73.412;2023-05-10T03:39:24;29.92;;;18.55;;
72201;SDS011;60105;54.956;73.412;2023-05-10T03:42:31;24.02;;;17.30;;
72201;SDS011;60105;54.956;73.412;2023-05-10T03:45:32;28.87;;;17.40;;
72201;SDS011;60105;54.956;73.412;2023-05-10T03:48:34;26.50;;;16.33;;
72201;SDS011;60105;54.956;73.412;2023-05-10T03:51:35;29.25;;;18.95;;
72201;SDS011;60105;54.956;73.412;2023-05-10T03:54:36;34.50;;;19.70;;
72201;SDS011;60105;54.956;73.412;2023-05-10T03:58:21;30.88;;;18.30;;
72201;SDS011;60105;54.956;73.412;2023-05-10T04:01:22;26.30;;;17.08;;
72201;SDS011;60105;54.956;73.412;2023-05-10T04:04:24;22.83;;;15.50;;
72201;SDS011;60105;54.956;73.412;2023-05-10T04:07:25;22.03;;;16.03;;
72201;SDS011;60105;54.956;73.412;2023-05-10T04:10:26;22.48;;;14.55;;
72201;SDS011;60105;54.956;73.412;2023-05-10T04:13:27;19.88;;;14.23;;
72201;SDS011;60105;54.956;73.412;2023-05-10T04:16:29;25.92;;;15.50;;
72201;SDS011;60105;54.956;73.412;2023-05-10T04:19:30;23.30;;;16.00;;
72201;SDS011;60105;54.956;73.412;2023-05-10T04:22:32;28.00;;;16.38;;
72201;SDS011;60105;54.956;73.412;2023-05-10T04:25:34;22.80;;;15.57;;
72201;SDS011;60105;54.956;73.412;2023-05-10T04:28:36;23.23;;;13.73;;
72201;SDS011;60105;54.956;73.412;2023-05-10T04:31:37;23.53;;;16.37;;
72201;SDS011;60105;54.956;73.412;2023-05-10T04:34:38;25.40;;;14.73;;
72201;SDS011;60105;54.956;73.412;2023-05-10T04:37:49;18.82;;;13.58;;
72201;SDS011;60105;54.956;73.412;2023-05-10T04:40:50;25.33;;;14.63;;
72201;SDS011;60105;54.956;73.412;2023-05-10T04:43:52;21.08;;;14.00;;
72201;SDS011;60105;54.956;73.412;2023-05-10T04:46:54;22.03;;;13.03;;
72201;SDS011;60105;54.956;73.412;2023-05-10T04:49:55;25.83;;;13.85;;
72201;SDS011;60105;54.956;73.412;2023-05-10T04:56:22;22.00;;;13.15;;
72201;SDS011;60105;54.956;73.412;2023-05-10T04:59:23;20.13;;;13.90;;
72201;SDS011;60105;54.956;73.412;2023-05-10T05:02:24;21.30;;;12.13;;
72201;SDS011;60105;54.956;73.412;2023-05-10T05:05:25;22.33;;;14.25;;
72201;SDS011;60105;54.956;73.412;2023-05-10T05:08:27;19.13;;;12.40;;
72201;SDS011;60105;54.956;73.412;2023-05-10T05:11:28;21.00;;;13.30;;
72201;SDS011;60105;54.956;73.412;2023-05-10T05:14:29;23.23;;;14.18;;
72201;SDS011;60105;54.956;73.412;2023-05-10T05:17:30;23.50;;;14.95;;
72201;SDS011;60105;54.956;73.412;2023-05-10T05:20:35;20.00;;;14.03;;
72201;SDS011;60105;54.956;73.412;2023-05-10T05:23:36;19.73;;;13.67;;
72201;SDS011;60105;54.956;73.412;2023-05-10T05:26:37;20.63;;;14.07;;
72201;SDS011;60105;54.956;73.412;2023-05-10T05:29:39;21.83;;;12.83;;
72201;SDS011;60105;54.956;73.412;2023-05-10T05:33:21;21.78;;;13.80;;
72201;SDS011;60105;54.956;73.412;2023-05-10T05:36:22;20.20;;;14.32;;
72201;SDS011;60105;54.956;73.412;2023-05-10T05:39:23;25.90;;;14.48;;
72201;SDS011;60105;54.956;73.412;2023-05-10T05:42:24;32.50;;;15.43;;
72201;SDS011;60105;54.956;73.412;2023-05-10T05:45:26;19.73;;;14.10;;
72201;SDS011;60105;54.956;73.412;2023-05-10T05:48:29;23.37;;;12.60;;
72201;SDS011;60105;54.956;73.412;2023-05-10T05:51:30;22.10;;;13.57;;
72201;SDS011;60105;54.956;73.412;2023-05-10T05:54:31;21.85;;;13.20;;
72201;SDS011;60105;54.956;73.412;2023-05-10T05:57:33;21.83;;;14.98;;
72201;SDS011;60105;54.956;73.412;2023-05-10T06:00:34;22.03;;;13.80;;
72201;SDS011;60105;54.956;73.412;2023-05-10T06:03:35;17.92;;;12.90;;
72201;SDS011;60105;54.956;73.412;2023-05-10T06:06:37;24.83;;;14.30;;
72201;SDS011;60105;54.956;73.412;2023-05-10T06:09:38;25.57;;;14.20;;
72201;SDS011;60105;54.956;73.412;2023-05-10T06:13:21;24.44;;;14.72;;
72201;SDS011;60105;54.956;73.412;2023-05-10T06:16:22;22.60;;;13.57;;
72201;SDS011;60105;54.956;73.412;2023-05-10T06:19:23;23.43;;;14.73;;
72201;SDS011;60105;54.956;73.412;2023-05-10T06:22:24;23.13;;;13.98;;
72201;SDS011;60105;54.956;73.412;2023-05-10T06:25:26;20.60;;;13.50;;
72201;SDS011;60105;54.956;73.412;2023-05-10T06:28:27;29.53;;;13.93;;
72201;SDS011;60105;54.956;73.412;2023-05-10T06:31:28;22.35;;;13.48;;
72201;SDS011;60105;54.956;73.412;2023-05-10T06:34:29;25.73;;;13.98;;
72201;SDS011;60105;54.956;73.412;2023-05-10T06:37:31;20.27;;;15.20;;
72201;SDS011;60105;54.956;73.412;2023-05-10T06:40:32;20.00;;;13.70;;
72201;SDS011;60105;54.956;73.412;2023-05-10T06:43:37;20.00;;;13.03;;
72201;SDS011;60105;54.956;73.412;2023-05-10T06:46:41;22.85;;;14.32;;
72201;SDS011;60105;54.956;73.412;2023-05-10T06:49:42;23.17;;;13.27;;
72201;SDS011;60105;54.956;73.412;2023-05-10T06:53:20;21.15;;;13.38;;
72201;SDS011;60105;54.956;73.412;2023-05-10T06:56:22;20.37;;;13.70;;
72201;SDS011;60105;54.956;73.412;2023-05-10T06:59:23;19.47;;;13.10;;
72201;SDS011;60105;54.956;73.412;2023-05-10T07:02:24;16.65;;;12.43;;
72201;SDS011;60105;54.956;73.412;2023-05-10T07:05:26;31.87;;;14.20;;
72201;SDS011;60105;54.956;73.412;2023-05-10T07:08:29;20.47;;;13.27;;
72201;SDS011;60105;54.956;73.412;2023-05-10T07:11:31;18.80;;;12.18;;
72201;SDS011;60105;54.956;73.412;2023-05-10T07:14:32;18.53;;;11.93;;
72201;SDS011;60105;54.956;73.412;2023-05-10T07:17:33;16.13;;;11.02;;
72201;SDS011;60105;54.956;73.412;2023-05-10T07:20:34;18.40;;;11.48;;
72201;SDS011;60105;54.956;73.412;2023-05-10T07:23:35;15.77;;;10.57;;
72201;SDS011;60105;54.956;73.412;2023-05-10T07:26:37;19.10;;;10.50;;
72201;SDS011;60105;54.956;73.412;2023-05-10T07:29:38;18.15;;;10.73;;
72201;SDS011;60105;54.956;73.412;2023-05-10T07:33:20;17.27;;;12.85;;
72201;SDS011;60105;54.956;73.412;2023-05-10T07:36:22;20.43;;;11.30;;
72201;SDS011;60105;54.956;73.412;2023-05-10T07:39:26;18.63;;;11.02;;
72201;SDS011;60105;54.956;73.412;2023-05-10T07:42:28;22.47;;;11.73;;
72201;SDS011;60105;54.956;73.412;2023-05-10T07:45:29;19.60;;;13.13;;
72201;SDS011;60105;54.956;73.412;2023-05-10T07:48:30;13.37;;;10.17;;
72201;SDS011;60105;54.956;73.412;2023-05-10T07:51:31;17.00;;;11.55;;
72201;SDS011;60105;54.956;73.412;2023-05-10T07:54:33;19.97;;;11.63;;
72201;SDS011;60105;54.956;73.412;2023-05-10T07:57:34;22.10;;;11.93;;
72201;SDS011;60105;54.956;73.412;2023-05-10T08:00:36;17.63;;;11.37;;
72201;SDS011;60105;54.956;73.412;2023-05-10T08:03:40;18.13;;;11.43;;
72201;SDS011;60105;54.956;73.412;2023-05-10T08:06:41;17.65;;;10.75;;
72201;SDS011;60105;54.956;73.412;2023-05-10T08:09:43;16.77;;;12.20;;
72201;SDS011;60105;54.956;73.412;2023-05-10T08:13:20;21.10;;;11.55;;
72201;SDS011;60105;54.956;73.412;2023-05-10T08:16:21;20.70;;;10.83;;
72201;SDS011;60105;54.956;73.412;2023-05-10T08:19:23;17.00;;;10.33;;
72201;SDS011;60105;54.956;73.412;2023-05-10T08:22:24;15.18;;;9.90;;
72201;SDS011;60105;54.956;73.412;2023-05-10T08:25:25;14.93;;;11.13;;
72201;SDS011;60105;54.956;73.412;2023-05-10T08:28:27;13.63;;;9.33;;
72201;SDS011;60105;54.956;73.412;2023-05-10T08:31:28;17.92;;;10.35;;
72201;SDS011;60105;54.956;73.412;2023-05-10T08:34:29;16.35;;;10.45;;
72201;SDS011;60105;54.956;73.412;2023-05-10T08:37:31;16.60;;;10.93;;
72201;SDS011;60105;54.956;73.412;2023-05-10T08:40:41;15.30;;;10.70;;
72201;SDS011;60105;54.956;73.412;2023-05-10T08:43:43;15.23;;;10.15;;
72201;SDS011;60105;54.956;73.412;2023-05-10T08:46:46;16.05;;;9.95;;
72201;SDS011;60105;54.956;73.412;2023-05-10T08:49:51;13.60;;;9.73;;
72201;SDS011;60105;54.956;73.412;2023-05-10T08:53:20;17.77;;;9.55;;
72201;SDS011;60105;54.956;73.412;2023-05-10T08:56:25;13.27;;;9.55;;
72201;SDS011;60105;54.956;73.412;2023-05-10T08:59:27;14.27;;;8.73;;
72201;SDS011;60105;54.956;73.412;2023-05-10T09:02:28;13.77;;;8.67;;
72201;SDS011;60105;54.956;73.412;2023-05-10T09:05:31;17.70;;;9.87;;
72201;SDS011;60105;54.956;73.412;2023-05-10T09:08:32;12.03;;;8.67;;
72201;SDS011;60105;54.956;73.412;2023-05-10T09:11:34;14.13;;;8.75;;
72201;SDS011;60105;54.956;73.412;2023-05-10T09:14:36;17.80;;;8.80;;
72201;SDS011;60105;54.956;73.412;2023-05-10T09:18:20;19.79;;;9.40;;
72201;SDS011;60105;54.956;73.412;2023-05-10T09:21:22;18.85;;;9.10;;
72201;SDS011;60105;54.956;73.412;2023-05-10T09:24:26;13.82;;;9.10;;
72201;SDS011;60105;54.956;73.412;2023-05-10T09:27:27;15.88;;;9.63;;
72201;SDS011;60105;54.956;73.412;2023-05-10T09:30:29;13.10;;;8.57;;
72201;SDS011;60105;54.956;73.412;2023-05-10T09:33:43;14.63;;;8.75;;
72201;SDS011;60105;54.956;73.412;2023-05-10T09:36:52;13.50;;;8.30;;
72201;SDS011;60105;54.956;73.412;2023-05-10T09:39:57;17.80;;;9.07;;
72201;SDS011;60105;54.956;73.412;2023-05-10T09:46:22;12.38;;;7.55;;
72201;SDS011;60105;54.956;73.412;2023-05-10T09:49:23;12.80;;;8.03;;
72201;SDS011;60105;54.956;73.412;2023-05-10T09:52:24;13.55;;;8.85;;
72201;SDS011;60105;54.956;73.412;2023-05-10T09:55:39;14.30;;;8.10;;
72201;SDS011;60105;54.956;73.412;2023-05-10T09:58:41;14.82;;;8.70;;
72201;SDS011;60105;54.956;73.412;2023-05-10T10:01:42;16.27;;;9.00;;
72201;SDS011;60105;54.956;73.412;2023-05-10T10:04:51;16.27;;;8.57;;
72201;SDS011;60105;54.956;73.412;2023-05-10T10:07:53;11.79;;;8.70;;
72201;SDS011;60105;54.956;73.412;2023-05-10T10:10:56;18.40;;;9.40;;
72201;SDS011;60105;54.956;73.412;2023-05-10T10:13:57;14.73;;;8.55;;
72201;SDS011;60105;54.956;73.412;2023-05-10T10:17:00;12.38;;;8.70;;
72201;SDS011;60105;54.956;73.412;2023-05-10T10:20:02;19.03;;;9.27;;
72201;SDS011;60105;54.956;73.412;2023-05-10T10:26:21;16.08;;;9.20;;
72201;SDS011;60105;54.956;73.412;2023-05-10T10:36:31;14.60;;;8.73;;
72201;SDS011;60105;54.956;73.412;2023-05-10T10:39:34;18.83;;;10.03;;
72201;SDS011;60105;54.956;73.412;2023-05-10T10:43:24;15.26;;;7.34;;
72201;SDS011;60105;54.956;73.412;2023-05-10T10:46:29;17.13;;;9.67;;
72201;SDS011;60105;54.956;73.412;2023-05-10T10:49:31;12.30;;;8.27;;
72201;SDS011;60105;54.956;73.412;2023-05-10T10:53:20;11.30;;;7.82;;
72201;SDS011;60105;54.956;73.412;2023-05-10T10:56:22;13.53;;;8.10;;
72201;SDS011;60105;54.956;73.412;2023-05-10T10:59:28;17.00;;;9.13;;
72201;SDS011;60105;54.956;73.412;2023-05-10T11:02:34;13.25;;;8.05;;
72201;SDS011;60105;54.956;73.412;2023-05-10T11:05:47;12.93;;;8.47;;
72201;SDS011;60105;54.956;73.412;2023-05-10T11:09:14;12.40;;;7.53;;
72201;SDS011;60105;54.956;73.412;2023-05-10T11:12:15;13.95;;;8.45;;
72201;SDS011;60105;54.956;73.412;2023-05-10T11:15:17;12.37;;;7.43;;
72201;SDS011;60105;54.956;73.412;2023-05-10T11:21:24;10.55;;;7.82;;
72201;SDS011;60105;54.956;73.412;2023-05-10T11:24:26;9.93;;;7.20;;
72201;SDS011;60105;54.956;73.412;2023-05-10T11:27:28;11.87;;;7.30;;
72201;SDS011;60105;54.956;73.412;2023-05-10T11:30:30;10.43;;;7.20;;
72201;SDS011;60105;54.956;73.412;2023-05-10T11:33:36;19.20;;;6.80;;
72201;SDS011;60105;54.956;73.412;2023-05-10T11:36:46;13.40;;;6.63;;
72201;SDS011;60105;54.956;73.412;2023-05-10T11:39:52;13.13;;;6.27;;
72201;SDS011;60105;54.956;73.412;2023-05-10T11:43:23;7.00;;;5.35;;
72201;SDS011;60105;54.956;73.412;2023-05-10T11:46:26;13.80;;;6.60;;
72201;SDS011;60105;54.956;73.412;2023-05-10T11:49:28;12.97;;;7.13;;
72201;SDS011;60105;54.956;73.412;2023-05-10T11:52:35;10.13;;;6.43;;
72201;SDS011;60105;54.956;73.412;2023-05-10T11:55:37;11.07;;;6.00;;
72201;SDS011;60105;54.956;73.412;2023-05-10T11:58:39;14.67;;;6.83;;
72201;SDS011;60105;54.956;73.412;2023-05-10T12:01:41;10.68;;;6.88;;
72201;SDS011;60105;54.956;73.412;2023-05-10T12:04:42;13.48;;;6.32;;
72201;SDS011;60105;54.956;73.412;2023-05-10T12:07:49;8.80;;;5.97;;
72201;SDS011;60105;54.956;73.412;2023-05-10T12:10:51;16.03;;;6.47;;
72201;SDS011;60105;54.956;73.412;2023-05-10T12:13:53;11.55;;;5.30;;
72201;SDS011;60105;54.956;73.412;2023-05-10T12:16:56;12.33;;;5.87;;
72201;SDS011;60105;54.956;73.412;2023-05-10T12:23:22;8.30;;;4.95;;
72201;SDS011;60105;54.956;73.412;2023-05-10T12:26:27;12.52;;;6.53;;
72201;SDS011;60105;54.956;73.412;2023-05-10T12:29:29;18.07;;;6.20;;
72201;SDS011;60105;54.956;73.412;2023-05-10T12:32:40;11.63;;;6.05;;
72201;SDS011;60105;54.956;73.412;2023-05-10T12:35:47;10.77;;;5.97;;
72201;SDS011;60105;54.956;73.412;2023-05-10T12:38:50;11.50;;;5.63;;
72201;SDS011;60105;54.956;73.412;2023-05-10T12:41:53;9.55;;;5.95;;
72201;SDS011;60105;54.956;73.412;2023-05-10T12:44:57;14.77;;;5.43;;
72201;SDS011;60105;54.956;73.412;2023-05-10T12:51:22;13.38;;;6.78;;
72201;SDS011;60105;54.956;73.412;2023-05-10T12:54:23;12.93;;;6.13;;
72201;SDS011;60105;54.956;73.412;2023-05-10T12:57:25;14.68;;;6.38;;
72201;SDS011;60105;54.956;73.412;2023-05-10T13:00:26;11.03;;;5.70;;
72201;SDS011;60105;54.956;73.412;2023-05-10T13:03:27;9.45;;;4.97;;
72201;SDS011;60105;54.956;73.412;2023-05-10T13:06:28;15.27;;;6.65;;
72201;SDS011;60105;54.956;73.412;2023-05-10T13:09:30;10.23;;;6.03;;
72201;SDS011;60105;54.956;73.412;2023-05-10T13:12:31;15.27;;;6.27;;
72201;SDS011;60105;54.956;73.412;2023-05-10T13:15:32;10.20;;;5.90;;
72201;SDS011;60105;54.956;73.412;2023-05-10T13:18:34;10.32;;;6.00;;
72201;SDS011;60105;54.956;73.412;2023-05-10T13:21:35;14.93;;;6.53;;
72201;SDS011;60105;54.956;73.412;2023-05-10T13:24:36;12.60;;;6.23;;
72201;SDS011;60105;54.956;73.412;2023-05-10T13:28:20;13.04;;;6.51;;
72201;SDS011;60105;54.956;73.412;2023-05-10T13:31:22;12.52;;;7.25;;
72201;SDS011;60105;54.956;73.412;2023-05-10T13:34:23;11.70;;;5.38;;
72201;SDS011;60105;54.956;73.412;2023-05-10T13:37:24;11.00;;;5.67;;
72201;SDS011;60105;54.956;73.412;2023-05-10T13:40:26;14.67;;;5.97;;
72201;SDS011;60105;54.956;73.412;2023-05-10T13:43:30;21.33;;;5.25;;
72201;SDS011;60105;54.956;73.412;2023-05-10T13:46:31;17.87;;;6.07;;
72201;SDS011;60105;54.956;73.412;2023-05-10T13:49:32;14.95;;;5.28;;
72201;SDS011;60105;54.956;73.412;2023-05-10T13:52:34;8.95;;;5.85;;
72201;SDS011;60105;54.956;73.412;2023-05-10T13:55:36;13.13;;;5.53;;
72201;SDS011;60105;54.956;73.412;2023-05-10T13:58:39;10.60;;;6.77;;
72201;SDS011;60105;54.956;73.412;2023-05-10T14:01:40;12.65;;;6.35;;
72201;SDS011;60105;54.956;73.412;2023-05-10T14:04:42;15.53;;;7.60;;
72201;SDS011;60105;54.956;73.412;2023-05-10T14:07:49;15.32;;;7.10;;
72201;SDS011;60105;54.956;73.412;2023-05-10T14:10:51;15.98;;;7.57;;
72201;SDS011;60105;54.956;73.412;2023-05-10T14:13:53;13.30;;;7.07;;
72201;SDS011;60105;54.956;73.412;2023-05-10T14:16:55;13.30;;;6.75;;
72201;SDS011;60105;54.956;73.412;2023-05-10T14:19:56;18.10;;;6.88;;
72201;SDS011;60105;54.956;73.412;2023-05-10T14:26:24;14.82;;;7.10;;
72201;SDS011;60105;54.956;73.412;2023-05-10T14:29:27;13.90;;;6.27;;
72201;SDS011;60105;54.956;73.412;2023-05-10T14:32:28;16.55;;;6.97;;
72201;SDS011;60105;54.956;73.412;2023-05-10T14:35:29;14.03;;;7.17;;
72201;SDS011;60105;54.956;73.412;2023-05-10T14:38:32;16.67;;;6.83;;
72201;SDS011;60105;54.956;73.412;2023-05-10T14:41:33;18.57;;;7.67;;
72201;SDS011;60105;54.956;73.412;2023-05-10T14:44:35;15.37;;;7.73;;
72201;SDS011;60105;54.956;73.412;2023-05-10T14:47:36;21.33;;;9.43;;
72201;SDS011;60105;54.956;73.412;2023-05-10T14:50:37;19.35;;;8.93;;
72201;SDS011;60105;54.956;73.412;2023-05-10T14:53:39;16.63;;;8.90;;
72201;SDS011;60105;54.956;73.412;2023-05-10T14:56:40;17.88;;;9.13;;
72201;SDS011;60105;54.956;73.412;2023-05-10T14:59:42;21.58;;;9.50;;
72201;SDS011;60105;54.956;73.412;2023-05-10T15:03:20;20.13;;;10.35;;
72201;SDS011;60105;54.956;73.412;2023-05-10T15:06:30;20.52;;;10.70;;
72201;SDS011;60105;54.956;73.412;2023-05-10T15:09:32;22.80;;;10.70;;
72201;SDS011;60105;54.956;73.412;2023-05-10T15:12:33;19.63;;;10.25;;
72201;SDS011;60105;54.956;73.412;2023-05-10T15:15:35;20.42;;;10.57;;
72201;SDS011;60105;54.956;73.412;2023-05-10T15:18:36;21.27;;;9.57;;
72201;SDS011;60105;54.956;73.412;2023-05-10T15:21:38;16.50;;;8.70;;
72201;SDS011;60105;54.956;73.412;2023-05-10T15:24:39;17.07;;;7.87;;
72201;SDS011;60105;54.956;73.412;2023-05-10T15:28:21;24.78;;;12.22;;
72201;SDS011;60105;54.956;73.412;2023-05-10T15:31:23;21.07;;;10.27;;
72201;SDS011;60105;54.956;73.412;2023-05-10T15:34:24;26.80;;;11.37;;
72201;SDS011;60105;54.956;73.412;2023-05-10T15:37:26;29.23;;;11.32;;
72201;SDS011;60105;54.956;73.412;2023-05-10T15:40:27;22.80;;;11.07;;
72201;SDS011;60105;54.956;73.412;2023-05-10T15:43:31;20.50;;;11.20;;
72201;SDS011;60105;54.956;73.412;2023-05-10T15:46:32;26.50;;;11.65;;
72201;SDS011;60105;54.956;73.412;2023-05-10T15:49:34;25.17;;;11.65;;
72201;SDS011;60105;54.956;73.412;2023-05-10T15:52:35;23.60;;;10.60;;
72201;SDS011;60105;54.956;73.412;2023-05-10T15:55:37;20.77;;;10.63;;
72201;SDS011;60105;54.956;73.412;2023-05-10T15:58:38;18.00;;;8.50;;
72201;SDS011;60105;54.956;73.412;2023-05-10T16:01:40;19.35;;;7.95;;
72201;SDS011;60105;54.956;73.412;2023-05-10T16:04:41;17.50;;;7.28;;
72201;SDS011;60105;54.956;73.412;2023-05-10T16:07:49;13.77;;;6.93;;
72201;SDS011;60105;54.956;73.412;2023-05-10T16:10:50;12.57;;;6.40;;
72201;SDS011;60105;54.956;73.412;2023-05-10T16:13:51;11.88;;;7.07;;
72201;SDS011;60105;54.956;73.412;2023-05-10T16:16:54;17.95;;;6.60;;
72201;SDS011;60105;54.956;73.412;2023-05-10T16:19:56;12.17;;;7.30;;
72201;SDS011;60105;54.956;73.412;2023-05-10T16:26:22;11.05;;;6.50;;
72201;SDS011;60105;54.956;73.412;2023-05-10T16:29:23;12.13;;;7.25;;
72201;SDS011;60105;54.956;73.412;2023-05-10T16:32:24;12.45;;;6.65;;
72201;SDS011;60105;54.956;73.412;2023-05-10T16:35:26;10.60;;;5.97;;
72201;SDS011;60105;54.956;73.412;2023-05-10T16:38:29;13.03;;;6.97;;
72201;SDS011;60105;54.956;73.412;2023-05-10T16:41:34;18.88;;;8.38;;
72201;SDS011;60105;54.956;73.412;2023-05-10T16:44:35;18.77;;;7.03;;
72201;SDS011;60105;54.956;73.412;2023-05-10T16:48:20;13.16;;;6.60;;
72201;SDS011;60105;54.956;73.412;2023-05-10T16:51:21;11.32;;;6.45;;
72201;SDS011;60105;54.956;73.412;2023-05-10T16:54:23;12.57;;;6.53;;
72201;SDS011;60105;54.956;73.412;2023-05-10T16:57:24;10.57;;;6.65;;
72201;SDS011;60105;54.956;73.412;2023-05-10T17:00:26;14.53;;;6.47;;
72201;SDS011;60105;54.956;73.412;2023-05-10T17:03:27;21.40;;;6.22;;
72201;SDS011;60105;54.956;73.412;2023-05-10T17:06:28;11.55;;;6.10;;
72201;SDS011;60105;54.956;73.412;2023-05-10T17:09:29;12.80;;;6.40;;
72201;SDS011;60105;54.956;73.412;2023-05-10T17:12:31;9.18;;;6.10;;
72201;SDS011;60105;54.956;73.412;2023-05-10T17:15:34;9.73;;;6.10;;
72201;SDS011;60105;54.956;73.412;2023-05-10T17:18:36;9.77;;;6.03;;
72201;SDS011;60105;54.956;73.412;2023-05-10T17:21:37;13.15;;;6.43;;
72201;SDS011;60105;54.956;73.412;2023-05-10T17:24:38;11.60;;;6.23;;
72201;SDS011;60105;54.956;73.412;2023-05-10T17:28:20;13.10;;;7.00;;
72201;SDS011;60105;54.956;73.412;2023-05-10T17:31:22;10.45;;;7.28;;
72201;SDS011;60105;54.956;73.412;2023-05-10T17:34:24;9.93;;;6.83;;
72201;SDS011;60105;54.956;73.412;2023-05-10T17:37:25;10.00;;;6.32;;
72201;SDS011;60105;54.956;73.412;2023-05-10T17:40:26;9.30;;;6.13;;
72201;SDS011;60105;54.956;73.412;2023-05-10T17:43:30;8.13;;;5.93;;
72201;SDS011;60105;54.956;73.412;2023-05-10T17:46:31;10.60;;;6.68;;
72201;SDS011;60105;54.956;73.412;2023-05-10T17:49:33;9.87;;;5.97;;
72201;SDS011;60105;54.956;73.412;2023-05-10T17:52:34;9.52;;;6.95;;
72201;SDS011;60105;54.956;73.412;2023-05-10T17:55:38;12.23;;;6.77;;
72201;SDS011;60105;54.956;73.412;2023-05-10T17:58:42;10.30;;;6.30;;
72201;SDS011;60105;54.956;73.412;2023-05-10T18:01:43;9.73;;;5.83;;
72201;SDS011;60105;54.956;73.412;2023-05-10T18:04:45;11.43;;;6.40;;
72201;SDS011;60105;54.956;73.412;2023-05-10T18:07:49;13.57;;;6.90;;
72201;SDS011;60105;54.956;73.412;2023-05-10T18:10:51;9.13;;;6.70;;
72201;SDS011;60105;54.956;73.412;2023-05-10T18:13:52;12.17;;;6.40;;
72201;SDS011;60105;54.956;73.412;2023-05-10T18:16:53;10.17;;;5.90;;
72201;SDS011;60105;54.956;73.412;2023-05-10T18:19:55;9.20;;;6.10;;
72201;SDS011;60105;54.956;73.412;2023-05-10T18:26:20;13.02;;;6.10;;
72201;SDS011;60105;54.956;73.412;2023-05-10T18:29:22;10.73;;;6.43;;
72201;SDS011;60105;54.956;73.412;2023-05-10T18:32:24;12.60;;;6.63;;
72201;SDS011;60105;54.956;73.412;2023-05-10T18:35:25;11.23;;;7.20;;
72201;SDS011;60105;54.956;73.412;2023-05-10T18:38:26;11.30;;;6.50;;
72201;SDS011;60105;54.956;73.412;2023-05-10T18:41:27;11.20;;;6.35;;
72201;SDS011;60105;54.956;73.412;2023-05-10T18:44:29;10.33;;;7.10;;
72201;SDS011;60105;54.956;73.412;2023-05-10T18:47:30;14.15;;;7.30;;
72201;SDS011;60105;54.956;73.412;2023-05-10T18:50:32;8.80;;;6.00;;
72201;SDS011;60105;54.956;73.412;2023-05-10T18:53:33;10.17;;;6.33;;